Time;durP1;ratioP1;P1;durP2;ratioP2;P2;SDS_P1;SDS_P2;PMS_P1;PMS_P2;Temp;Humidity;BMP_temperature;BMP_pressure;BME280_temperature;BME280_humidity;BME280_pressure;Samples;Min_cycle;Max_cycle;Signal;HPM_P1;HPM_P2
2022/06/16 00:00:05;;;;;;;6.95;6.25;;;;;;;17.70;96.00;100156.59;6244002;23;20053;-79
2022/06/16 00:02:41;;;;;;;7.95;6.18;;;;;;;17.74;96.84;100150.81;6243015;22;20019;-79
2022/06/16 00:05:09;;;;;;;8.18;6.68;;;;;;;17.79;96.65;100164.16;6217018;23;20012;-79
2022/06/16 00:07:36;;;;;;;8.95;6.25;;;;;;;17.80;96.61;100160.84;6242971;23;20040;-79
2022/06/16 00:10:02;;;;;;;10.50;7.30;;;;;;;17.73;96.98;100163.28;6243363;23;20012;-79
2022/06/16 00:12:28;;;;;;;7.93;6.45;;;;;;;17.68;97.18;100165.50;6241420;23;20528;-79
2022/06/16 00:14:53;;;;;;;9.20;6.63;;;;;;;17.74;97.38;100159.22;6242232;23;20039;-79
2022/06/16 00:17:19;;;;;;;10.18;6.80;;;;;;;17.68;97.36;100154.28;6240763;23;20027;-79
2022/06/16 00:19:44;;;;;;;11.00;7.50;;;;;;;17.72;97.53;100156.88;6243315;23;20016;-79
2022/06/16 00:22:10;;;;;;;7.65;6.38;;;;;;;17.70;97.38;100163.00;6241822;23;20040;-79
2022/06/16 00:24:35;;;;;;;9.80;6.55;;;;;;;17.72;96.95;100159.69;6242318;23;20008;-79
2022/06/16 00:27:01;;;;;;;10.52;6.70;;;;;;;17.70;96.96;100146.16;6243569;23;20012;-79
2022/06/16 00:29:27;;;;;;;8.70;7.25;;;;;;;17.63;98.31;100146.53;6243834;23;20438;-79
2022/06/16 00:31:53;;;;;;;9.68;7.43;;;;;;;17.59;97.61;100139.59;6243495;23;20106;-79
2022/06/16 00:34:19;;;;;;;8.93;7.40;;;;;;;17.62;98.41;100150.59;6243823;23;20393;-79
2022/06/16 00:36:44;;;;;;;10.40;7.43;;;;;;;17.61;98.53;100148.28;6215813;23;20018;-79
2022/06/16 00:39:10;;;;;;;8.32;7.40;;;;;;;17.62;98.54;100145.00;6244049;23;20016;-79
2022/06/16 00:41:35;;;;;;;9.98;7.18;;;;;;;17.63;98.40;100140.91;6215899;23;20393;-79
2022/06/16 00:44:05;;;;;;;10.90;6.80;;;;;;;17.62;98.69;100145.00;6216324;23;20023;-79
2022/06/16 00:46:30;;;;;;;8.32;6.90;;;;;;;17.55;99.66;100131.31;6217161;23;20008;-79
2022/06/16 00:48:59;;;;;;;7.75;6.88;;;;;;;17.57;99.47;100139.25;6243640;23;20343;-79
2022/06/16 00:51:43;;;;;;;7.35;6.50;;;;;;;17.57;98.68;100137.25;6191492;23;20023;-79
2022/06/16 00:54:20;;;;;;;10.02;6.97;;;;;;;17.57;99.89;100133.63;6217002;23;20016;-79
2022/06/16 00:56:47;;;;;;;8.82;7.00;;;;;;;17.57;98.00;100130.84;6243585;23;20043;-79
2022/06/16 00:59:13;;;;;;;10.73;7.07;;;;;;;17.56;97.96;100132.88;6243660;23;20011;-79
2022/06/16 01:01:41;;;;;;;8.77;7.18;;;;;;;17.52;98.12;100129.47;6181974;22;20024;-79
2022/06/16 01:06:53;;;;;;;10.43;7.10;;;;;;;17.38;99.59;100127.44;6274326;22;20452;-79
2022/06/16 01:09:21;;;;;;;10.00;7.45;;;;;;;17.40;100.00;100132.56;6274557;22;20000;-79
2022/06/16 01:14:47;;;;;;;8.70;7.43;;;;;;;17.38;99.65;100130.25;6274089;22;20008;-79
2022/06/16 01:18:00;;;;;;;8.82;7.25;;;;;;;17.38;100.00;100129.47;6245995;22;20022;-79
2022/06/16 01:20:52;;;;;;;9.23;7.90;;;;;;;17.34;100.00;100132.47;6154282;22;20019;-79
2022/06/16 01:23:49;;;;;;;9.30;7.18;;;;;;;17.25;99.34;100122.09;6245352;22;20019;-79
2022/06/16 01:26:53;;;;;;;10.05;7.40;;;;;;;17.31;99.35;100125.00;6221579;22;20008;-79
2022/06/16 01:29:26;;;;;;;10.02;7.50;;;;;;;17.27;99.23;100118.81;6247496;22;20042;-79
2022/06/16 01:31:57;;;;;;;9.65;7.20;;;;;;;17.24;99.72;100119.78;6273060;22;20008;-79
2022/06/16 01:34:30;;;;;;;8.30;7.22;;;;;;;17.22;100.00;100122.28;6247059;22;20101;-79
2022/06/16 01:37:23;;;;;;;8.63;7.28;;;;;;;17.19;100.00;100118.41;6272755;22;20007;-79
2022/06/16 01:39:58;;;;;;;9.88;7.70;;;;;;;17.12;100.00;100118.78;6246469;22;20043;-79
2022/06/16 01:42:30;;;;;;;8.38;7.15;;;;;;;17.12;100.00;100124.38;6221376;22;20497;-79
2022/06/16 01:45:01;;;;;;;9.20;7.40;;;;;;;17.16;100.00;100118.59;6222639;22;20019;-79
2022/06/16 01:47:30;;;;;;;9.18;7.25;;;;;;;17.23;100.00;100115.41;6221091;22;20016;-79
2022/06/16 01:50:02;;;;;;;11.20;7.70;;;;;;;17.22;100.00;100116.69;6221468;22;20464;-79
2022/06/16 01:52:35;;;;;;;10.98;7.50;;;;;;;17.21;100.00;100126.34;6246554;22;20039;-79
2022/06/16 01:55:16;;;;;;;8.27;7.13;;;;;;;17.21;100.00;100109.53;6245841;22;20012;-79
2022/06/16 01:57:47;;;;;;;8.75;7.20;;;;;;;17.17;100.00;100120.94;6221219;22;20016;-79
2022/06/16 02:00:20;;;;;;;7.90;7.00;;;;;;;17.12;100.00;100118.00;6221784;22;20019;-79
2022/06/16 02:02:49;;;;;;;7.97;7.28;;;;;;;17.12;100.00;100118.00;6249241;22;20016;-79
2022/06/16 02:05:20;;;;;;;8.75;7.47;;;;;;;17.11;100.00;100110.84;6191602;23;20020;-79
2022/06/16 02:07:55;;;;;;;8.00;7.20;;;;;;;17.10;100.00;100109.31;6190149;23;20019;-79
2022/06/16 02:10:28;;;;;;;8.32;7.35;;;;;;;16.98;100.00;100099.16;6216788;23;20023;-79
2022/06/16 02:12:55;;;;;;;8.80;7.32;;;;;;;17.04;100.00;100105.63;6190049;23;20024;-79
2022/06/16 02:15:56;;;;;;;9.13;7.60;;;;;;;16.93;100.00;100102.59;6193492;23;20406;-79
2022/06/16 02:18:25;;;;;;;8.48;6.95;;;;;;;16.93;100.00;100105.41;6176049;23;20331;-79
2022/06/16 02:21:23;;;;;;;7.97;6.72;;;;;;;16.93;100.00;100105.41;6216409;23;20016;-79
2022/06/16 02:23:49;;;;;;;8.85;6.68;;;;;;;16.93;100.00;100105.41;6190717;23;20017;-79
2022/06/16 02:26:16;;;;;;;6.82;6.13;;;;;;;16.88;100.00;100100.44;6191803;23;20055;-79
2022/06/16 02:28:46;;;;;;;7.15;6.30;;;;;;;16.83;100.00;100112.31;6216140;23;20016;-79
2022/06/16 02:31:29;;;;;;;8.55;6.53;;;;;;;16.85;100.00;100115.44;6216077;23;20015;-79
2022/06/16 02:34:24;;;;;;;8.35;6.80;;;;;;;16.85;100.00;100115.44;6242370;23;20539;-79
2022/06/16 02:37:02;;;;;;;6.93;6.22;;;;;;;16.81;100.00;100120.44;6190828;23;20040;-79
2022/06/16 02:39:45;;;;;;;8.45;6.85;;;;;;;16.78;100.00;100117.31;6243510;23;20012;-79
2022/06/16 02:42:29;;;;;;;10.45;7.30;;;;;;;16.71;100.00;100122.50;6242950;23;20016;-79
2022/06/16 02:45:13;;;;;;;8.57;7.30;;;;;;;16.69;100.00;100123.00;6242449;23;20062;-79
2022/06/16 02:48:12;;;;;;;9.18;7.97;;;;;;;16.66;100.00;100126.00;6216222;23;20016;-79
2022/06/16 02:51:01;;;;;;;10.63;8.10;;;;;;;16.62;100.00;100114.94;6216116;23;20434;-79
2022/06/16 02:56:30;;;;;;;8.63;7.72;;;;;;;16.60;100.00;100123.06;6220482;23;20039;-79
2022/06/16 02:58:58;;;;;;;8.30;7.38;;;;;;;16.58;100.00;100108.75;6215064;23;20018;-79
2022/06/16 03:01:28;;;;;;;7.82;6.70;;;;;;;16.61;100.00;100124.63;6191580;23;19996;-79
2022/06/16 03:04:10;;;;;;;8.15;7.25;;;;;;;16.63;100.00;100119.31;6215221;23;20511;-79
2022/06/16 03:06:36;;;;;;;8.38;7.18;;;;;;;16.65;100.00;100125.22;6243493;23;20008;-79
2022/06/16 03:09:02;;;;;;;8.10;7.10;;;;;;;16.55;100.00;100126.47;6244717;23;20015;-79
2022/06/16 03:11:29;;;;;;;8.95;6.80;;;;;;;16.58;100.00;100125.53;6244579;23;20032;-79
2022/06/16 03:13:54;;;;;;;11.52;6.82;;;;;;;16.62;100.00;100128.94;6244415;23;20334;-78
2022/06/16 03:16:35;;;;;;;8.25;6.90;;;;;;;16.66;100.00;100126.75;6218289;23;20345;-79
2022/06/16 03:19:01;;;;;;;10.75;7.93;;;;;;;16.71;100.00;100128.13;6243918;23;20020;-79
2022/06/16 03:21:29;;;;;;;8.90;8.00;;;;;;;16.75;100.00;100132.28;6216699;23;20047;-78
2022/06/16 03:23:55;;;;;;;9.75;8.80;;;;;;;16.79;100.00;100118.09;6243902;23;20012;-78
2022/06/16 03:26:21;;;;;;;8.73;7.82;;;;;;;16.82;100.00;100122.78;6218428;23;20023;-78
2022/06/16 03:28:46;;;;;;;9.85;8.18;;;;;;;16.85;100.00;100126.63;6244397;23;20012;-78
2022/06/16 03:31:17;;;;;;;8.93;7.93;;;;;;;16.92;100.00;100137.47;6216831;23;20000;-80
2022/06/16 03:33:43;;;;;;;8.75;7.82;;;;;;;16.91;100.00;100125.47;6216744;23;20062;-80
2022/06/16 03:36:11;;;;;;;9.07;8.15;;;;;;;16.95;100.00;100126.06;6217559;23;20038;-80
2022/06/16 03:38:42;;;;;;;9.82;8.05;;;;;;;17.00;100.00;100128.22;6191031;23;20027;-80
2022/06/16 03:41:11;;;;;;;10.80;8.15;;;;;;;16.99;100.00;100125.88;6217594;23;20107;-80
2022/06/16 03:43:37;;;;;;;9.25;8.23;;;;;;;17.07;100.00;100138.28;6192043;23;20012;-80
2022/06/16 03:46:23;;;;;;;10.48;8.00;;;;;;;17.13;100.00;100136.38;6243276;23;20015;-80
2022/06/16 03:49:06;;;;;;;10.52;8.65;;;;;;;17.17;100.00;100131.38;6217368;23;20354;-80
2022/06/16 03:51:48;;;;;;;8.82;7.90;;;;;;;17.23;100.00;100129.44;6217493;23;20008;-80
2022/06/16 03:54:18;;;;;;;9.00;8.07;;;;;;;17.24;100.00;100133.78;6217514;23;20446;-80
2022/06/16 03:56:44;;;;;;;12.30;8.13;;;;;;;17.32;100.00;100131.38;6216660;23;20446;-80
2022/06/16 03:59:14;;;;;;;10.68;8.35;;;;;;;17.38;100.00;100137.88;6193605;23;20008;-80
2022/06/16 04:01:41;;;;;;;9.60;7.72;;;;;;;17.38;100.00;100119.03;6216853;23;20019;-80
2022/06/16 04:04:08;;;;;;;9.43;7.75;;;;;;;17.42;100.00;100133.63;6216859;23;20050;-80
2022/06/16 04:06:46;;;;;;;9.38;8.38;;;;;;;17.45;100.00;100141.06;6216539;23;20469;-80
2022/06/16 04:09:13;;;;;;;9.63;8.50;;;;;;;17.42;100.00;100125.22;6216610;23;20134;-80
2022/06/16 04:11:41;;;;;;;10.10;8.25;;;;;;;17.47;100.00;100138.56;6217201;23;20008;-80
2022/06/16 04:14:10;;;;;;;11.98;7.60;;;;;;;17.49;100.00;100141.66;6243911;23;20012;-80
2022/06/16 04:16:58;;;;;;;10.52;8.27;;;;;;;17.57;100.00;100137.25;6243167;23;20349;-79
2022/06/16 04:20:14;;;;;;;12.85;7.85;;;;;;;17.61;100.00;100137.06;6227688;23;20454;-79
2022/06/16 04:22:59;;;;;;;10.05;7.95;;;;;;;17.62;100.00;100133.78;6220668;23;20062;-80
2022/06/16 04:25:30;;;;;;;8.48;7.53;;;;;;;17.65;100.00;100134.84;6217668;23;20012;-79
2022/06/16 04:28:04;;;;;;;9.23;8.10;;;;;;;17.73;100.00;100130.38;6217351;23;20031;-79
2022/06/16 04:30:34;;;;;;;10.02;7.88;;;;;;;17.80;100.00;100132.00;6217402;23;20018;-79
2022/06/16 04:33:00;;;;;;;9.13;8.15;;;;;;;17.79;100.00;100131.28;6216445;23;20497;-79
2022/06/16 04:35:28;;;;;;;10.98;8.90;;;;;;;17.87;100.00;100126.03;6216654;23;20004;-80
2022/06/16 04:37:58;;;;;;;11.13;8.40;;;;;;;17.91;100.00;100126.63;6216818;23;20493;-80
2022/06/16 04:40:24;;;;;;;10.32;8.55;;;;;;;17.98;100.00;100123.41;6216141;23;20107;-80
2022/06/16 04:42:53;;;;;;;9.82;7.90;;;;;;;18.05;100.00;100125.81;6216678;23;20012;-78
2022/06/16 04:45:19;;;;;;;10.68;8.82;;;;;;;18.10;100.00;100116.72;6216856;23;20090;-79
2022/06/16 04:47:46;;;;;;;10.70;9.18;;;;;;;18.21;100.00;100128.09;6216097;23;20012;-79
2022/06/16 04:50:17;;;;;;;13.02;8.70;;;;;;;18.29;100.00;100129.25;6216709;23;20023;-79
2022/06/16 04:52:47;;;;;;;9.88;8.88;;;;;;;18.35;100.00;100127.31;6216765;23;20405;-78
2022/06/16 04:55:17;;;;;;;9.90;8.95;;;;;;;18.49;100.00;100137.72;6216317;23;20016;-77
2022/06/16 04:58:02;;;;;;;8.63;7.70;;;;;;;18.62;100.00;100135.38;6216234;23;20107;-79
2022/06/16 05:00:49;;;;;;;11.10;8.57;;;;;;;18.73;100.00;100131.16;6215698;23;20019;-80
2022/06/16 05:03:37;;;;;;;12.80;8.65;;;;;;;18.80;100.00;100134.34;6200993;23;20346;-79
2022/06/16 05:06:17;;;;;;;9.70;8.70;;;;;;;18.88;100.00;100131.88;6216940;23;20407;-80
2022/06/16 05:08:55;;;;;;;11.30;7.72;;;;;;;18.83;100.00;100115.72;6215905;23;20012;-82
2022/06/16 05:11:41;;;;;;;10.05;8.05;;;;;;;18.96;100.00;100127.38;6220212;23;20143;-82
2022/06/16 05:14:27;;;;;;;12.35;9.00;;;;;;;19.11;100.00;100125.25;6189594;23;20033;-82
2022/06/16 05:17:12;;;;;;;10.48;7.63;;;;;;;19.21;100.00;100129.47;6225827;23;20852;-80
2022/06/16 05:20:13;;;;;;;10.80;8.10;;;;;;;19.18;100.00;100122.00;6221854;23;20020;-81
2022/06/16 05:22:52;;;;;;;14.00;8.27;;;;;;;19.29;100.00;100129.81;6215117;23;20342;-80
2022/06/16 05:25:46;;;;;;;10.18;8.35;;;;;;;19.38;99.49;100126.81;6161124;23;20196;-80
2022/06/16 05:28:27;;;;;;;21.60;10.10;;;;;;;19.46;99.28;100125.94;6216147;23;20315;-80
2022/06/16 05:31:23;;;;;;;14.13;7.95;;;;;;;19.63;97.97;100128.91;6222277;23;20103;-80
2022/06/16 05:34:15;;;;;;;9.65;7.35;;;;;;;19.67;94.24;100123.06;6237265;23;20016;-82
2022/06/16 05:36:56;;;;;;;9.40;7.28;;;;;;;19.65;94.70;100134.06;6214626;23;20023;-81
2022/06/16 05:39:32;;;;;;;7.20;6.50;;;;;;;19.75;92.53;100132.59;6213290;23;20053;-79
2022/06/16 05:42:25;;;;;;;8.60;6.82;;;;;;;19.81;92.44;100136.25;6236923;23;20016;-80
2022/06/16 05:45:15;;;;;;;9.07;6.72;;;;;;;20.09;90.24;100134.44;6194748;23;20008;-82
2022/06/16 05:47:51;;;;;;;9.68;6.18;;;;;;;20.11;85.22;100126.25;6213896;23;20381;-82
2022/06/16 05:50:18;;;;;;;8.32;5.85;;;;;;;20.23;83.80;100125.06;6189008;23;20465;-80
2022/06/16 05:52:44;;;;;;;7.43;6.50;;;;;;;20.31;84.12;100134.63;6213242;23;20444;-80
2022/06/16 05:55:25;;;;;;;8.85;5.45;;;;;;;20.38;78.69;100128.50;6212954;23;20047;-81
2022/06/16 05:57:52;;;;;;;8.68;6.07;;;;;;;20.51;79.58;100119.63;6214545;23;20043;-84
2022/06/16 06:00:18;;;;;;;9.85;5.47;;;;;;;20.72;79.20;100128.72;6191643;23;20445;-82
2022/06/16 06:02:58;;;;;;;7.18;5.35;;;;;;;20.92;76.62;100137.78;6241783;22;20369;-83
2022/06/16 06:05:27;;;;;;;8.52;4.90;;;;;;;20.84;73.00;100127.47;6215905;23;20008;-82
2022/06/16 06:16:26;;;;;;;7.13;5.45;;;;;;;21.48;73.55;100137.22;6194449;23;20393;-83
2022/06/16 06:18:53;;;;;;;7.93;5.30;;;;;;;21.31;71.22;100140.75;6194046;23;20012;-83
2022/06/16 06:21:58;;;;;;;10.05;5.10;;;;;;;21.48;70.42;100134.38;6214679;23;20015;-83
2022/06/16 06:24:08;;;;;;;5.78;4.53;;;;;;;21.61;69.43;100132.63;6241842;23;20020;-83
2022/06/16 06:26:34;;;;;;;6.25;4.68;;;;;;;21.77;68.97;100142.41;6216001;23;20004;-83
2022/06/16 06:29:00;;;;;;;7.82;5.07;;;;;;;21.83;68.20;100135.50;6215490;23;20038;-83
2022/06/16 06:31:26;;;;;;;7.88;4.72;;;;;;;21.81;67.60;100132.38;6215090;23;20020;-83
2022/06/16 06:33:53;;;;;;;7.03;5.40;;;;;;;21.79;67.05;100134.19;6215212;23;20004;-83
2022/06/16 06:36:19;;;;;;;10.93;4.85;;;;;;;21.71;67.69;100133.16;6188882;23;20023;-82
2022/06/16 06:38:44;;;;;;;8.00;4.80;;;;;;;21.72;68.57;100134.69;6213532;23;20426;-83
2022/06/16 06:41:10;;;;;;;6.63;4.88;;;;;;;21.69;69.09;100135.72;6240434;23;20008;-83
2022/06/16 06:43:35;;;;;;;6.57;4.82;;;;;;;21.80;68.98;100124.41;6242178;23;20004;-83
2022/06/16 06:46:01;;;;;;;8.98;5.35;;;;;;;21.81;68.57;100126.75;6244037;23;20040;-83
2022/06/16 06:48:26;;;;;;;7.72;5.05;;;;;;;21.96;68.91;100120.88;6244944;23;20000;-86
2022/06/16 06:50:52;;;;;;;7.97;4.82;;;;;;;22.23;69.58;100103.16;6245341;23;20008;-86
2022/06/16 06:53:17;;;;;;;7.10;5.18;;;;;;;22.55;67.94;100114.88;6243556;23;20042;-83
2022/06/16 06:55:45;;;;;;;6.80;4.78;;;;;;;22.80;68.14;100126.41;6244015;23;20019;-83
2022/06/16 06:58:23;;;;;;;8.02;4.68;;;;;;;22.88;65.67;100124.59;6217182;23;20016;-82
2022/06/16 07:00:53;;;;;;;6.80;5.00;;;;;;;22.85;66.71;100131.28;6215533;23;20154;-82
2022/06/16 07:03:20;;;;;;;7.28;4.50;;;;;;;23.02;65.24;100120.66;6241420;23;20016;-83
2022/06/16 07:05:46;;;;;;;6.22;4.50;;;;;;;22.85;67.48;100134.84;6242605;23;20507;-83
2022/06/16 07:08:12;;;;;;;6.50;4.60;;;;;;;23.24;66.36;100141.13;6214684;23;20091;-83
2022/06/16 07:10:39;;;;;;;7.70;4.72;;;;;;;23.50;65.54;100131.47;6215415;23;20081;-83
2022/06/16 07:13:04;;;;;;;6.90;4.40;;;;;;;23.79;64.36;100130.78;6244039;23;20069;-83
2022/06/16 07:15:30;;;;;;;6.90;4.53;;;;;;;23.80;65.22;100123.03;6244571;23;20012;-83
2022/06/16 07:17:56;;;;;;;6.65;4.63;;;;;;;23.81;63.40;100133.88;6243390;23;20019;-83
2022/06/16 07:20:22;;;;;;;8.98;4.70;;;;;;;23.78;63.08;100126.41;6243968;23;20016;-82
2022/06/16 07:22:47;;;;;;;5.93;3.70;;;;;;;23.65;62.71;100131.91;6244362;23;20008;-83
2022/06/16 07:25:14;;;;;;;8.85;4.28;;;;;;;24.02;61.85;100117.22;6216581;23;20023;-90
2022/06/16 07:27:41;;;;;;;6.97;4.20;;;;;;;24.15;59.73;100125.88;6244725;23;20016;-85
2022/06/16 07:30:13;;;;;;;5.07;3.97;;;;;;;24.23;59.25;100126.06;6217222;23;20023;-84
2022/06/16 07:32:43;;;;;;;5.85;4.10;;;;;;;24.47;58.65;100109.81;6244558;23;20015;-83
2022/06/16 07:35:09;;;;;;;5.47;4.20;;;;;;;24.50;59.12;100111.63;6243599;23;20012;-83
2022/06/16 07:37:35;;;;;;;9.02;4.53;;;;;;;24.76;59.03;100116.72;6244488;23;20009;-83
2022/06/16 07:40:02;;;;;;;6.88;4.10;;;;;;;24.59;57.96;100113.31;6242683;23;20070;-84
2022/06/16 07:42:27;;;;;;;10.68;4.40;;;;;;;24.47;57.42;100114.72;6244208;23;20339;-83
2022/06/16 07:44:53;;;;;;;6.20;3.70;;;;;;;24.71;58.10;100113.97;6243611;23;20000;-84
2022/06/16 07:47:20;;;;;;;7.95;4.20;;;;;;;24.37;57.74;100113.56;6243894;23;20023;-84
2022/06/16 07:49:48;;;;;;;5.93;4.00;;;;;;;24.60;58.15;100107.09;6217182;23;20340;-83
2022/06/16 07:52:15;;;;;;;7.78;4.13;;;;;;;24.86;57.53;100114.34;6244340;23;20315;-84
2022/06/16 07:54:41;;;;;;;8.75;5.85;;;;;;;25.10;56.60;100117.13;6191314;23;20011;-84
2022/06/16 07:57:07;;;;;;;7.68;3.88;;;;;;;25.37;56.13;100106.69;6243531;23;20113;-83
2022/06/16 07:59:33;;;;;;;6.70;4.22;;;;;;;25.29;56.41;100111.44;6244333;23;20012;-84
2022/06/16 08:01:59;;;;;;;9.65;4.40;;;;;;;25.27;54.01;100108.38;6243457;22;20008;-84
2022/06/16 08:04:24;;;;;;;6.00;3.90;;;;;;;25.12;52.81;100105.22;6243646;23;20054;-84
2022/06/16 08:06:50;;;;;;;5.95;4.32;;;;;;;25.17;53.34;100110.06;6243918;23;20012;-84
2022/06/16 08:09:16;;;;;;;6.15;3.72;;;;;;;25.33;52.99;100111.91;6216043;23;20334;-84
2022/06/16 08:14:26;;;;;;;6.88;3.95;;;;;;;25.53;51.77;100125.56;6243546;23;20012;-84
2022/06/16 08:16:52;;;;;;;5.30;3.80;;;;;;;25.55;51.35;100125.03;6243704;23;20323;-84
2022/06/16 08:19:18;;;;;;;5.50;3.78;;;;;;;25.98;51.25;100132.09;6243061;23;20004;-83
2022/06/16 08:21:43;;;;;;;5.55;3.95;;;;;;;26.47;50.49;100128.94;6243875;23;20008;-84
2022/06/16 08:24:09;;;;;;;5.18;3.70;;;;;;;26.52;50.62;100124.47;6242948;23;20012;-83
2022/06/16 08:26:36;;;;;;;4.85;3.80;;;;;;;26.45;48.32;100117.31;6243364;23;20016;-83
2022/06/16 08:29:05;;;;;;;7.03;3.80;;;;;;;26.56;48.19;100120.00;6215083;23;20023;-84
2022/06/16 08:31:31;;;;;;;5.72;3.92;;;;;;;26.43;48.38;100119.97;6243495;23;20008;-83
2022/06/16 08:33:56;;;;;;;5.82;3.72;;;;;;;26.17;49.34;100112.13;6216271;23;20019;-83
2022/06/16 08:36:22;;;;;;;7.85;3.72;;;;;;;26.54;49.34;100111.22;6191910;23;20016;-84
2022/06/16 08:38:48;;;;;;;5.43;3.88;;;;;;;26.94;48.26;100128.31;6216348;23;20036;-84
2022/06/16 08:41:27;;;;;;;7.55;4.80;;;;;;;27.14;47.49;100124.78;6216605;23;20004;-84
2022/06/16 08:44:31;;;;;;;4.47;3.70;;;;;;;27.27;46.72;100116.22;6216157;23;20012;-84
2022/06/16 08:46:59;;;;;;;9.40;4.15;;;;;;;27.29;46.32;100124.97;6200301;23;20012;-84
2022/06/16 08:49:58;;;;;;;13.35;3.67;;;;;;;27.49;45.52;100127.16;6243468;23;20047;-84
2022/06/16 08:52:48;;;;;;;5.63;3.58;;;;;;;27.77;43.11;100110.16;6227297;23;20127;-84
2022/06/16 08:55:20;;;;;;;6.50;4.03;;;;;;;27.62;45.60;100104.28;6243078;23;20349;-83
2022/06/16 08:57:45;;;;;;;5.05;3.30;;;;;;;27.49;45.17;100103.59;6243601;23;20012;-84
2022/06/16 09:00:15;;;;;;;5.50;3.47;;;;;;;27.30;44.06;100109.41;6242996;23;20074;-84
2022/06/16 09:02:53;;;;;;;5.47;3.33;;;;;;;27.28;43.22;100109.19;6210826;23;20017;-84
2022/06/16 09:05:43;;;;;;;5.85;3.40;;;;;;;27.11;42.65;100103.88;6212125;23;20017;-84
2022/06/16 09:08:11;;;;;;;6.60;3.10;;;;;;;27.26;43.88;100108.97;6210978;23;20016;-84
2022/06/16 09:10:43;;;;;;;6.22;3.30;;;;;;;27.57;43.01;100119.44;6213399;23;20083;-84
2022/06/16 09:13:45;;;;;;;4.32;3.10;;;;;;;27.67;43.20;100120.50;6212263;23;20214;-86
2022/06/16 09:16:26;;;;;;;6.18;3.13;;;;;;;27.84;41.54;100120.09;6212594;23;20020;-84
2022/06/16 09:19:13;;;;;;;6.97;3.80;;;;;;;28.15;39.43;100113.34;6211660;23;20028;-84
2022/06/16 09:22:05;;;;;;;4.85;3.20;;;;;;;27.86;39.49;100116.69;6186745;23;20044;-83
2022/06/16 09:24:59;;;;;;;5.95;3.70;;;;;;;28.08;40.25;100107.56;6212482;23;20091;-84
2022/06/16 09:27:43;;;;;;;4.70;2.85;;;;;;;28.37;39.89;100103.47;6209855;23;20017;-84
2022/06/16 09:30:21;;;;;;;5.68;3.10;;;;;;;27.92;38.78;100109.53;6211094;23;20013;-83
2022/06/16 09:32:52;;;;;;;7.78;3.08;;;;;;;27.78;38.73;100113.78;6213035;23;20015;-84
2022/06/16 09:35:44;;;;;;;4.82;3.38;;;;;;;28.07;39.95;100111.72;6211251;23;20024;-84
2022/06/16 09:38:19;;;;;;;4.70;3.20;;;;;;;28.36;39.39;100098.31;6183051;23;20008;-83
2022/06/16 09:40:59;;;;;;;6.75;3.55;;;;;;;28.46;39.15;100096.47;6211681;23;20446;-84
2022/06/16 09:43:34;;;;;;;8.70;3.70;;;;;;;28.82;37.88;100110.81;6210823;23;20023;-83
2022/06/16 09:46:05;;;;;;;4.78;3.45;;;;;;;28.70;38.41;100105.44;6211133;23;20043;-84
2022/06/16 09:48:35;;;;;;;4.72;3.30;;;;;;;28.79;39.29;100089.09;6212907;23;20013;-84
2022/06/16 09:51:01;;;;;;;6.68;3.45;;;;;;;29.09;38.99;100109.22;6212682;23;20016;-83
2022/06/16 09:53:42;;;;;;;6.03;3.65;;;;;;;28.57;39.07;100105.50;6210043;23;20394;-85
2022/06/16 09:56:21;;;;;;;6.10;3.45;;;;;;;28.59;39.85;100099.97;6211893;23;20018;-84
2022/06/16 09:58:57;;;;;;;6.80;3.65;;;;;;;28.85;39.44;100112.53;6212864;23;20012;-84
2022/06/16 10:01:29;;;;;;;6.78;3.67;;;;;;;29.10;38.54;100105.81;6209449;23;20152;-83
2022/06/16 10:04:01;;;;;;;5.07;3.50;;;;;;;28.69;38.63;100112.44;6211937;23;20043;-84
2022/06/16 10:07:03;;;;;;;5.37;3.50;;;;;;;28.79;38.74;100111.94;6213681;23;20020;-84
2022/06/16 10:09:41;;;;;;;6.45;3.65;;;;;;;29.00;38.85;100109.75;6213585;23;20091;-84
2022/06/16 10:12:45;;;;;;;7.22;3.65;;;;;;;29.05;38.70;100112.44;6212963;23;20009;-84
2022/06/16 10:15:16;;;;;;;5.50;3.63;;;;;;;28.86;38.43;100099.78;6148867;23;20016;-84
2022/06/16 10:17:42;;;;;;;5.50;3.42;;;;;;;29.01;38.54;100100.63;6211189;23;20298;-84
2022/06/16 10:20:09;;;;;;;6.03;3.28;;;;;;;29.03;38.37;100095.13;6211088;23;20009;-84
2022/06/16 10:22:37;;;;;;;4.43;3.50;;;;;;;28.90;38.57;100088.78;6212938;23;20004;-83
2022/06/16 10:25:08;;;;;;;5.85;3.35;;;;;;;29.10;38.67;100079.34;6210831;23;20012;-84
2022/06/16 10:27:44;;;;;;;4.07;3.63;;;;;;;29.20;38.22;100083.16;6186446;23;20315;-84
2022/06/16 10:30:35;;;;;;;5.72;3.80;;;;;;;28.57;39.06;100074.09;6212237;23;20346;-84
2022/06/16 10:33:25;;;;;;;6.90;3.95;;;;;;;28.66;40.39;100076.44;6201390;23;20131;-83
2022/06/16 10:36:05;;;;;;;4.10;3.50;;;;;;;28.84;39.46;100074.66;6198780;23;20012;-83
2022/06/16 10:38:40;;;;;;;5.28;3.55;;;;;;;29.04;39.16;100061.59;6214637;23;20019;-84
2022/06/16 10:41:30;;;;;;;5.45;3.70;;;;;;;29.10;38.38;100051.53;6214377;23;20017;-84
2022/06/16 10:43:58;;;;;;;6.28;3.80;;;;;;;29.05;38.24;100041.06;6212820;23;20028;-84
2022/06/16 10:46:31;;;;;;;4.57;3.50;;;;;;;29.08;39.55;100047.72;6214425;23;20419;-83
2022/06/16 10:49:02;;;;;;;4.75;3.60;;;;;;;29.10;39.31;100056.50;6214591;23;20071;-83
2022/06/16 10:51:30;;;;;;;5.97;3.75;;;;;;;29.30;39.14;100058.50;6188464;23;20019;-84
2022/06/16 10:54:19;;;;;;;4.65;3.60;;;;;;;29.36;38.72;100053.34;6212758;23;20075;-84
2022/06/16 10:56:46;;;;;;;7.35;3.67;;;;;;;29.34;39.58;100050.31;6214399;23;20505;-83
2022/06/16 10:59:14;;;;;;;4.47;3.75;;;;;;;28.96;39.21;100046.53;6187410;23;20063;-83
2022/06/16 11:02:02;;;;;;;5.82;3.72;;;;;;;28.26;40.34;100032.47;6217030;23;20013;-84
2022/06/16 11:04:39;;;;;;;7.50;3.80;;;;;;;28.57;40.13;100037.00;6244735;23;20342;-83
2022/06/16 11:07:05;;;;;;;7.75;3.80;;;;;;;28.68;40.92;100035.91;6244600;23;20456;-84
2022/06/16 11:09:32;;;;;;;7.60;3.60;;;;;;;29.16;40.72;100032.13;6217974;23;20509;-83
2022/06/16 11:12:02;;;;;;;6.53;4.05;;;;;;;29.52;40.36;100029.19;6218056;23;20012;-83
2022/06/16 11:14:31;;;;;;;5.40;3.80;;;;;;;29.61;39.16;100017.19;6192618;23;20016;-83
2022/06/16 11:16:56;;;;;;;6.88;3.85;;;;;;;29.76;39.36;100012.81;6244509;23;20019;-83
2022/06/16 11:19:50;;;;;;;7.22;3.78;;;;;;;29.76;39.24;100018.53;6217037;23;20020;-84
2022/06/16 11:22:18;;;;;;;6.43;4.20;;;;;;;29.77;39.62;100028.63;6211683;23;20438;-85
2022/06/16 11:25:11;;;;;;;6.22;3.97;;;;;;;29.71;39.70;100011.69;6217171;23;20008;-84
2022/06/16 11:27:45;;;;;;;7.30;4.30;;;;;;;29.70;39.47;100026.53;6244197;23;20420;-85
2022/06/16 11:30:43;;;;;;;6.38;4.03;;;;;;;29.46;39.84;100037.19;6244130;23;20319;-85
2022/06/16 11:34:06;;;;;;;4.53;3.72;;;;;;;29.65;39.35;100031.88;6217390;23;20062;-84
2022/06/16 11:36:13;;;;;;;5.20;3.75;;;;;;;29.65;38.12;100031.88;6244111;23;20026;-84
2022/06/16 11:38:50;;;;;;;5.35;3.50;;;;;;;29.70;38.52;100026.53;6217247;23;20012;-84
2022/06/16 11:41:15;;;;;;;4.00;3.60;;;;;;;29.74;37.92;100027.69;6217041;23;20347;-84
2022/06/16 11:43:41;;;;;;;6.30;3.60;;;;;;;29.82;38.25;100013.38;6244545;23;20014;-84
2022/06/16 11:46:28;;;;;;;5.68;3.67;;;;;;;30.06;37.25;100002.16;6244000;23;20027;-84
2022/06/16 11:49:10;;;;;;;4.80;3.70;;;;;;;30.37;36.71;99991.38;6217344;23;20507;-84
2022/06/16 11:52:09;;;;;;;3.92;3.47;;;;;;;30.38;37.03;100004.38;6192755;23;20039;-84
2022/06/16 11:55:03;;;;;;;6.80;3.83;;;;;;;30.28;38.91;99985.53;6217461;23;20388;-84
2022/06/16 11:57:52;;;;;;;4.85;3.70;;;;;;;30.03;38.40;99983.28;6217751;23;20015;-85
2022/06/16 12:00:20;;;;;;;5.55;3.88;;;;;;;29.97;38.97;99996.25;6243978;23;20012;-84
2022/06/16 12:03:20;;;;;;;6.70;3.70;;;;;;;30.10;39.38;99985.38;6217083;23;20039;-86
2022/06/16 12:06:04;;;;;;;5.00;3.78;;;;;;;30.18;38.77;99973.91;6217058;23;20032;-87
2022/06/16 12:08:44;;;;;;;5.43;3.85;;;;;;;30.11;38.18;99980.41;6243786;23;20012;-88
2022/06/16 12:11:12;;;;;;;6.55;3.40;;;;;;;29.05;39.18;99977.47;6243953;23;20091;-87
2022/06/16 12:13:56;;;;;;;4.70;3.85;;;;;;;29.26;39.33;99975.22;6244162;23;20008;-84